Time;durP1;ratioP1;P1;durP2;ratioP2;P2;SDS_P1;SDS_P2;PMS_P1;PMS_P2;Temp;Humidity;BMP_temperature;BMP_pressure;BME280_temperature;BME280_humidity;BME280_pressure;Samples;Min_cycle;Max_cycle;Signal;HPM_P1;HPM_P2
2023/02/03 00:00:39;;;;;;;17.50;9.87;;;;;;;;;;4356992;32;317340;-88
2023/02/03 00:03:07;;;;;;;18.13;10.80;;;;;;;;;;4347404;32;347532;-87
2023/02/03 00:05:35;;;;;;;18.93;12.60;;;;;;;;;;4357075;32;317536;-88
2023/02/03 00:08:03;;;;;;;23.20;14.90;;;;;;;;;;4357058;32;318788;-88
2023/02/03 00:10:30;;;;;;;25.30;14.77;;;;;;;;;;4345492;32;416893;-88
2023/02/03 00:12:57;;;;;;;28.87;17.90;;;;;;;;;;4357448;32;318274;-88
2023/02/03 00:15:24;;;;;;;25.77;17.40;;;;;;;;;;4348132;32;317882;-88
2023/02/03 00:17:50;;;;;;;27.77;15.73;;;;;;;;;;4358160;32;317813;-88
2023/02/03 00:20:19;;;;;;;20.73;14.13;;;;;;;;;;4346816;32;317716;-88
2023/02/03 00:22:46;;;;;;;21.70;15.20;;;;;;;;;;4357928;32;318285;-89
2023/02/03 00:25:13;;;;;;;29.90;17.50;;;;;;;;;;4347926;32;317775;-88
2023/02/03 00:27:39;;;;;;;37.67;20.07;;;;;;;;;;4356782;32;317619;-88
2023/02/03 00:30:07;;;;;;;34.27;20.43;;;;;;;;;;4345112;32;317711;-88
2023/02/03 00:32:34;;;;;;;41.80;24.77;;;;;;;;;;4363652;32;317799;-88
2023/02/03 00:35:00;;;;;;;46.77;30.30;;;;;;;;;;4357122;32;317938;-88
2023/02/03 00:37:29;;;;;;;44.30;29.63;;;;;;;;;;4347213;32;343886;-88
2023/02/03 00:39:55;;;;;;;38.70;22.93;;;;;;;;;;4360287;32;317539;-88
2023/02/03 00:42:22;;;;;;;29.73;19.27;;;;;;;;;;4349129;32;349897;-87
2023/02/03 00:44:49;;;;;;;29.00;18.63;;;;;;;;;;4360375;32;318093;-87
2023/02/03 00:47:16;;;;;;;34.10;17.33;;;;;;;;;;4352019;32;318364;-88
2023/02/03 00:49:44;;;;;;;31.13;21.20;;;;;;;;;;4365526;32;317522;-87
2023/02/03 00:52:11;;;;;;;36.10;21.47;;;;;;;;;;4355505;32;317747;-88
2023/02/03 00:54:39;;;;;;;32.47;20.47;;;;;;;;;;4366428;32;317685;-87
2023/02/03 00:57:06;;;;;;;31.80;19.77;;;;;;;;;;4355320;32;317662;-87
2023/02/03 00:59:32;;;;;;;32.53;19.93;;;;;;;;;;4368007;32;318028;-87
2023/02/03 01:01:59;;;;;;;46.03;25.87;;;;;;;;;;4363437;32;318747;-87
2023/02/03 01:04:26;;;;;;;57.73;32.17;;;;;;;;;;4351890;32;317782;-87
2023/02/03 01:06:56;;;;;;;58.93;34.67;;;;;;;;;;4363735;32;318421;-87
2023/02/03 01:09:23;;;;;;;59.03;31.20;;;;;;;;;;4356681;32;317900;-87
2023/02/03 01:11:51;;;;;;;52.90;27.77;;;;;;;;;;4364973;32;317447;-88
2023/02/03 01:14:18;;;;;;;21.87;14.67;;;;;;;;;;4348407;32;317593;-88
2023/02/03 01:16:44;;;;;;;20.13;11.93;;;;;;;;;;4359505;32;318514;-88
2023/02/03 01:19:11;;;;;;;16.80;10.73;;;;;;;;;;4350024;32;318509;-87
2023/02/03 01:21:38;;;;;;;14.37;8.37;;;;;;;;;;4361730;32;318505;-88
2023/02/03 01:24:05;;;;;;;13.60;6.93;;;;;;;;;;4349896;32;317396;-87
2023/02/03 01:26:32;;;;;;;10.73;7.30;;;;;;;;;;4358015;32;317735;-88
2023/02/03 01:29:01;;;;;;;16.80;8.40;;;;;;;;;;4356826;32;316569;-88
2023/02/03 01:31:29;;;;;;;12.77;7.80;;;;;;;;;;4349182;32;317409;-88
2023/02/03 01:33:57;;;;;;;11.10;6.47;;;;;;;;;;4360168;32;316543;-88
2023/02/03 01:36:25;;;;;;;9.40;6.73;;;;;;;;;;4349206;32;317081;-88
2023/02/03 01:38:53;;;;;;;10.17;6.33;;;;;;;;;;4358201;32;315782;-88
2023/02/03 01:41:21;;;;;;;10.77;6.03;;;;;;;;;;4349700;32;317323;-88
2023/02/03 01:43:51;;;;;;;9.03;5.07;;;;;;;;;;4356593;32;317908;-88
2023/02/03 01:46:28;;;;;;;7.33;4.93;;;;;;;;;;4346610;32;316433;-88
2023/02/03 01:48:56;;;;;;;11.13;5.90;;;;;;;;;;4356049;32;315696;-88
2023/02/03 01:51:23;;;;;;;7.07;5.33;;;;;;;;;;4347099;32;317412;-88
2023/02/03 01:53:51;;;;;;;8.47;5.17;;;;;;;;;;4356124;32;348934;-88
2023/02/03 01:56:18;;;;;;;8.77;5.90;;;;;;;;;;4345810;32;316339;-88
2023/02/03 01:58:47;;;;;;;9.27;5.50;;;;;;;;;;4355384;32;315921;-89
2023/02/03 02:01:14;;;;;;;9.63;6.63;;;;;;;;;;4347179;32;316246;-88
2023/02/03 02:03:46;;;;;;;10.50;7.27;;;;;;;;;;4357349;32;316141;-88
2023/02/03 02:06:14;;;;;;;14.10;7.80;;;;;;;;;;4347184;32;317499;-88
2023/02/03 02:08:44;;;;;;;12.83;8.10;;;;;;;;;;4356429;32;331329;-88
2023/02/03 02:11:11;;;;;;;15.70;8.73;;;;;;;;;;4346905;32;316624;-88
2023/02/03 02:13:38;;;;;;;21.50;13.47;;;;;;;;;;4356199;32;316991;-88
2023/02/03 02:16:10;;;;;;;18.30;10.97;;;;;;;;;;4343692;32;352412;-87
2023/02/03 02:18:52;;;;;;;17.47;9.97;;;;;;;;;;4357194;32;318447;-88
2023/02/03 02:21:52;;;;;;;14.27;8.70;;;;;;;;;;4344950;32;357614;-88
2023/02/03 02:24:45;;;;;;;12.00;7.17;;;;;;;;;;4347344;32;317448;-88
2023/02/03 02:27:24;;;;;;;10.90;7.13;;;;;;;;;;4346919;32;317039;-88
2023/02/03 02:30:31;;;;;;;14.67;8.83;;;;;;;;;;4356811;32;317371;-88
2023/02/03 02:33:07;;;;;;;16.73;9.40;;;;;;;;;;4344689;32;416895;-88
2023/02/03 02:35:47;;;;;;;13.37;9.13;;;;;;;;;;4346317;32;417022;-88
2023/02/03 02:38:23;;;;;;;24.83;13.57;;;;;;;;;;4349910;32;316735;-88
2023/02/03 02:40:55;;;;;;;21.63;12.80;;;;;;;;;;4358831;32;318633;-88
2023/02/03 02:43:28;;;;;;;20.87;14.80;;;;;;;;;;4349414;32;318862;-89
2023/02/03 02:46:00;;;;;;;23.63;13.53;;;;;;;;;;4359922;32;318297;-89
2023/02/03 02:48:33;;;;;;;20.40;11.63;;;;;;;;;;4348946;32;318603;-89
2023/02/03 02:51:03;;;;;;;22.23;16.23;;;;;;;;;;4359725;32;317611;-89
2023/02/03 02:53:35;;;;;;;19.10;13.33;;;;;;;;;;4347118;32;418066;-89
2023/02/03 02:56:07;;;;;;;23.90;14.67;;;;;;;;;;4357815;32;318396;-87
2023/02/03 02:58:35;;;;;;;19.20;12.73;;;;;;;;;;4345227;32;416959;-88
2023/02/03 03:01:03;;;;;;;10.70;8.20;;;;;;;;;;4358145;32;323326;-88
2023/02/03 03:03:31;;;;;;;15.60;9.10;;;;;;;;;;4346513;32;415583;-88
2023/02/03 03:06:02;;;;;;;14.40;10.07;;;;;;;;;;4359574;32;317236;-88
2023/02/03 03:08:33;;;;;;;21.63;13.47;;;;;;;;;;4349691;32;317757;-88
2023/02/03 03:11:02;;;;;;;18.27;11.40;;;;;;;;;;4359501;32;318219;-88
2023/02/03 03:13:32;;;;;;;14.83;10.00;;;;;;;;;;4345274;32;418608;-87
2023/02/03 03:16:01;;;;;;;17.03;10.53;;;;;;;;;;4359155;32;318308;-88
2023/02/03 03:18:33;;;;;;;15.87;10.70;;;;;;;;;;4349484;32;318383;-88
2023/02/03 03:21:05;;;;;;;17.57;10.93;;;;;;;;;;4359192;32;318637;-88
2023/02/03 03:23:38;;;;;;;18.23;11.03;;;;;;;;;;4346614;32;417404;-88
2023/02/03 03:26:14;;;;;;;18.27;11.47;;;;;;;;;;4348262;32;317565;-88
2023/02/03 03:28:47;;;;;;;18.57;11.03;;;;;;;;;;4358585;32;318589;-88
2023/02/03 03:31:14;;;;;;;21.10;12.00;;;;;;;;;;4350411;32;317777;-88
2023/02/03 03:33:43;;;;;;;14.33;9.40;;;;;;;;;;4361107;32;318006;-89
2023/02/03 03:36:19;;;;;;;7.87;6.73;;;;;;;;;;4350762;32;316722;-88
2023/02/03 03:38:53;;;;;;;8.47;5.90;;;;;;;;;;4358797;32;315336;-88
2023/02/03 03:41:28;;;;;;;7.33;5.10;;;;;;;;;;4348824;32;315472;-88
2023/02/03 03:43:59;;;;;;;7.40;4.70;;;;;;;;;;4359170;32;323937;-88
2023/02/03 03:46:30;;;;;;;6.13;4.03;;;;;;;;;;4348060;32;316162;-88
2023/02/03 03:49:02;;;;;;;5.80;4.33;;;;;;;;;;4357102;32;316392;-88
2023/02/03 03:51:32;;;;;;;6.60;4.53;;;;;;;;;;4344377;32;415627;-88
2023/02/03 03:54:05;;;;;;;9.00;5.80;;;;;;;;;;4357446;32;316279;-87
2023/02/03 03:56:38;;;;;;;13.53;8.53;;;;;;;;;;4330053;32;413019;-89
2023/02/03 03:59:08;;;;;;;23.90;15.77;;;;;;;;;;4332242;32;317300;-88
2023/02/03 04:01:39;;;;;;;18.17;11.07;;;;;;;;;;4344925;32;318249;-88
2023/02/03 04:04:10;;;;;;;28.90;16.93;;;;;;;;;;4333535;32;318370;-88
2023/02/03 04:06:39;;;;;;;26.43;14.63;;;;;;;;;;4343423;32;317695;-88
2023/02/03 04:09:06;;;;;;;31.70;17.27;;;;;;;;;;4332796;32;317747;-88
2023/02/03 04:14:18;;;;;;;33.43;18.57;;;;;;;;;;4333865;32;318178;-88
2023/02/03 04:16:44;;;;;;;36.07;19.70;;;;;;;;;;4334709;32;317500;-88
2023/02/03 04:19:13;;;;;;;20.73;12.73;;;;;;;;;;4332333;32;335072;-88
2023/02/03 04:21:39;;;;;;;23.80;14.00;;;;;;;;;;4342074;32;317710;-88
2023/02/03 04:24:07;;;;;;;22.20;13.60;;;;;;;;;;4332196;32;356248;-87
2023/02/03 04:26:34;;;;;;;27.93;13.23;;;;;;;;;;4341897;32;318700;-88
2023/02/03 04:29:00;;;;;;;26.80;14.93;;;;;;;;;;4341820;32;321255;-88
2023/02/03 04:31:27;;;;;;;24.43;13.97;;;;;;;;;;4333314;32;318363;-88
2023/02/03 04:33:54;;;;;;;23.23;13.43;;;;;;;;;;4343171;32;318339;-88
2023/02/03 04:36:22;;;;;;;24.27;16.43;;;;;;;;;;4332099;32;317582;-88
2023/02/03 04:38:49;;;;;;;29.10;18.33;;;;;;;;;;4343331;32;317539;-87
2023/02/03 04:41:16;;;;;;;24.87;16.73;;;;;;;;;;4331867;32;318471;-88
2023/02/03 04:43:43;;;;;;;26.70;16.67;;;;;;;;;;4347064;32;318302;-89
2023/02/03 04:46:10;;;;;;;31.93;15.77;;;;;;;;;;4336634;32;318503;-89
2023/02/03 04:48:37;;;;;;;16.17;12.17;;;;;;;;;;4346280;32;318311;-88
2023/02/03 04:51:06;;;;;;;23.77;14.43;;;;;;;;;;4340996;32;318137;-85
2023/02/03 04:53:35;;;;;;;21.77;13.73;;;;;;;;;;4343342;32;317689;-87
2023/02/03 04:56:03;;;;;;;22.50;14.43;;;;;;;;;;4342057;32;317519;-88
2023/02/03 04:58:30;;;;;;;23.77;15.17;;;;;;;;;;4331380;32;420574;-87
2023/02/03 05:00:57;;;;;;;32.47;19.43;;;;;;;;;;4341984;32;318546;-88
2023/02/03 05:03:23;;;;;;;33.72;19.42;;;;;;;;;;4332840;32;341726;-87
2023/02/03 05:05:50;;;;;;;72.07;33.53;;;;;;;;;;4344461;32;318207;-88
2023/02/03 05:08:17;;;;;;;86.80;34.70;;;;;;;;;;4332765;32;318217;-87
2023/02/03 05:10:46;;;;;;;64.13;30.93;;;;;;;;;;4341382;32;317873;-88
2023/02/03 05:13:12;;;;;;;43.83;24.70;;;;;;;;;;4331838;32;318711;-87
2023/02/03 05:15:39;;;;;;;38.53;21.80;;;;;;;;;;4342542;32;320087;-88
2023/02/03 05:18:07;;;;;;;34.83;18.67;;;;;;;;;;4332751;32;318012;-87
2023/02/03 05:20:34;;;;;;;21.17;12.60;;;;;;;;;;4341487;32;317454;-88
2023/02/03 05:23:00;;;;;;;16.53;11.07;;;;;;;;;;4343048;32;317511;-88
2023/02/03 05:25:27;;;;;;;33.00;18.53;;;;;;;;;;4333100;32;318329;-88
2023/02/03 05:27:55;;;;;;;21.77;13.27;;;;;;;;;;4342735;32;318317;-88
2023/02/03 05:30:22;;;;;;;17.40;10.30;;;;;;;;;;4333282;32;317614;-88
2023/02/03 05:32:49;;;;;;;18.90;10.53;;;;;;;;;;4341983;32;317458;-89
2023/02/03 05:35:17;;;;;;;14.00;9.03;;;;;;;;;;4333156;32;318601;-88
2023/02/03 05:37:44;;;;;;;20.20;12.50;;;;;;;;;;4341566;32;316605;-89
2023/02/03 05:42:58;;;;;;;36.33;22.53;;;;;;;;;;4342370;32;318331;-88
2023/02/03 05:45:25;;;;;;;41.27;23.50;;;;;;;;;;4331342;32;318070;-88
2023/02/03 05:47:52;;;;;;;45.67;27.20;;;;;;;;;;4340769;32;317645;-88
2023/02/03 05:50:19;;;;;;;31.53;18.77;;;;;;;;;;4331266;32;318517;-88
2023/02/03 05:52:46;;;;;;;30.50;16.87;;;;;;;;;;4341320;32;318480;-88
2023/02/03 05:55:12;;;;;;;41.57;23.37;;;;;;;;;;4329717;33;358649;-89
2023/02/03 05:57:39;;;;;;;64.50;33.47;;;;;;;;;;4342796;32;317493;-88
2023/02/03 06:00:09;;;;;;;61.13;31.63;;;;;;;;;;4332233;33;318557;-88
2023/02/03 06:02:36;;;;;;;48.37;28.03;;;;;;;;;;4341144;32;317490;-88
2023/02/03 06:05:02;;;;;;;45.00;25.30;;;;;;;;;;4345198;33;317697;-88
2023/02/03 06:07:29;;;;;;;45.03;24.63;;;;;;;;;;4337267;32;416691;-89
2023/02/03 06:09:56;;;;;;;49.83;27.80;;;;;;;;;;4345524;32;318360;-88
2023/02/03 06:12:23;;;;;;;41.03;24.33;;;;;;;;;;4335389;32;318283;-88
2023/02/03 06:14:50;;;;;;;43.57;23.37;;;;;;;;;;4348461;32;318456;-88
2023/02/03 06:17:18;;;;;;;50.43;27.60;;;;;;;;;;4340483;32;318237;-88
2023/02/03 06:19:44;;;;;;;57.33;29.37;;;;;;;;;;4347416;32;317221;-88
2023/02/03 06:22:11;;;;;;;56.43;31.00;;;;;;;;;;4335090;32;317905;-88
2023/02/03 06:24:38;;;;;;;37.37;22.83;;;;;;;;;;4345004;32;318246;-87
2023/02/03 06:27:06;;;;;;;26.87;13.57;;;;;;;;;;4336026;32;318779;-88
2023/02/03 06:29:32;;;;;;;16.33;9.00;;;;;;;;;;4345154;32;323357;-88
2023/02/03 06:31:59;;;;;;;19.83;11.00;;;;;;;;;;4346341;32;316479;-90
2023/02/03 06:34:27;;;;;;;26.40;15.53;;;;;;;;;;4339899;32;318391;-88
2023/02/03 06:36:57;;;;;;;39.90;18.87;;;;;;;;;;4347872;32;317352;-86
2023/02/03 06:39:24;;;;;;;34.53;21.37;;;;;;;;;;4335032;32;318309;-88
2023/02/03 06:41:51;;;;;;;39.60;25.37;;;;;;;;;;4344247;32;317562;-88
2023/02/03 06:44:18;;;;;;;37.00;23.13;;;;;;;;;;4335126;32;317657;-88
2023/02/03 06:46:44;;;;;;;30.10;20.60;;;;;;;;;;4345426;32;345842;-88
2023/02/03 06:49:11;;;;;;;20.50;12.40;;;;;;;;;;4336316;32;318605;-87
2023/02/03 06:51:57;;;;;;;26.97;15.93;;;;;;;;;;4346753;32;317287;-88
2023/02/03 06:54:24;;;;;;;51.87;26.60;;;;;;;;;;4326732;32;318177;-89
2023/02/03 06:56:52;;;;;;;47.87;23.47;;;;;;;;;;4347866;32;317267;-89
2023/02/03 06:59:19;;;;;;;48.47;26.33;;;;;;;;;;4336039;32;329940;-90
2023/02/03 07:01:45;;;;;;;33.40;17.17;;;;;;;;;;4353692;32;318527;-90
2023/02/03 07:04:12;;;;;;;28.80;16.03;;;;;;;;;;4342362;32;318130;-89
2023/02/03 07:06:39;;;;;;;33.47;17.10;;;;;;;;;;4349678;32;316505;-91
2023/02/03 07:09:07;;;;;;;40.43;25.17;;;;;;;;;;4338638;32;318560;-89
2023/02/03 07:11:34;;;;;;;31.70;17.83;;;;;;;;;;4348588;32;317754;-88
2023/02/03 07:14:01;;;;;;;25.27;13.03;;;;;;;;;;4346113;32;318433;-89
2023/02/03 07:16:28;;;;;;;30.43;16.40;;;;;;;;;;4335997;32;318642;-89
2023/02/03 07:18:55;;;;;;;28.87;17.37;;;;;;;;;;4345175;32;354077;-89
2023/02/03 07:21:21;;;;;;;22.60;14.97;;;;;;;;;;4334815;32;318466;-90
2023/02/03 07:23:49;;;;;;;28.50;18.63;;;;;;;;;;4346847;32;317413;-90
2023/02/03 07:26:17;;;;;;;20.80;14.70;;;;;;;;;;4334375;32;355406;-90
2023/02/03 07:28:45;;;;;;;15.50;11.00;;;;;;;;;;4345547;32;318681;-90
2023/02/03 07:31:11;;;;;;;18.07;11.00;;;;;;;;;;4335045;32;338662;-89
2023/02/03 07:33:39;;;;;;;27.37;12.13;;;;;;;;;;4346672;32;317597;-88
2023/02/03 07:36:07;;;;;;;18.50;10.00;;;;;;;;;;4336495;32;317747;-90
2023/02/03 07:38:36;;;;;;;15.40;10.03;;;;;;;;;;4343165;32;317730;-89
2023/02/03 07:41:03;;;;;;;15.63;10.57;;;;;;;;;;4344609;32;318334;-88
2023/02/03 07:43:32;;;;;;;15.00;9.33;;;;;;;;;;4331328;32;417326;-89
2023/02/03 07:45:58;;;;;;;13.73;9.00;;;;;;;;;;4343965;32;316739;-89
2023/02/03 07:48:25;;;;;;;18.23;12.57;;;;;;;;;;4334081;32;317272;-89
2023/02/03 07:50:52;;;;;;;17.03;12.07;;;;;;;;;;4343950;32;318667;-88
2023/02/03 07:53:19;;;;;;;42.07;27.43;;;;;;;;;;4333058;32;318454;-90
2023/02/03 07:55:46;;;;;;;25.93;17.73;;;;;;;;;;4342735;32;317533;-89
2023/02/03 07:58:13;;;;;;;121.13;71.17;;;;;;;;;;4332770;32;325681;-90
2023/02/03 08:00:42;;;;;;;51.90;31.87;;;;;;;;;;4343336;32;318665;-89
2023/02/03 08:03:08;;;;;;;39.40;22.40;;;;;;;;;;4332607;32;347555;-90
2023/02/03 08:05:36;;;;;;;40.53;22.10;;;;;;;;;;4343588;32;317501;-89
2023/02/03 08:08:03;;;;;;;36.50;17.03;;;;;;;;;;4342077;32;318148;-89
2023/02/03 08:10:30;;;;;;;25.07;14.03;;;;;;;;;;4344805;32;420207;-89
2023/02/03 08:12:56;;;;;;;50.77;26.60;;;;;;;;;;4358020;32;318572;-89
2023/02/03 08:15:23;;;;;;;38.17;23.17;;;;;;;;;;4348495;32;318294;-90
2023/02/03 08:17:51;;;;;;;16.07;12.20;;;;;;;;;;4357710;32;318488;-89
2023/02/03 08:20:18;;;;;;;13.43;9.80;;;;;;;;;;4348467;32;317451;-89
2023/02/03 08:22:45;;;;;;;12.30;9.10;;;;;;;;;;4359153;32;317412;-89
2023/02/03 08:25:12;;;;;;;17.40;10.27;;;;;;;;;;4348685;32;317105;-90
2023/02/03 08:27:39;;;;;;;18.90;9.93;;;;;;;;;;4357732;32;318115;-90
2023/02/03 08:30:08;;;;;;;37.13;25.33;;;;;;;;;;4348318;32;317481;-89
2023/02/03 08:32:34;;;;;;;13.13;6.70;;;;;;;;;;4358640;32;317297;-90
2023/02/03 08:35:03;;;;;;;11.90;7.20;;;;;;;;;;4358556;32;316581;-90
2023/02/03 08:37:31;;;;;;;10.23;6.00;;;;;;;;;;4339662;32;416633;-90
2023/02/03 08:39:58;;;;;;;9.30;5.07;;;;;;;;;;4356748;32;317455;-88
2023/02/03 08:42:25;;;;;;;14.50;8.60;;;;;;;;;;4348167;32;316142;-88
2023/02/03 08:44:52;;;;;;;8.37;5.67;;;;;;;;;;4357882;32;317593;-89
2023/02/03 08:47:18;;;;;;;11.50;6.90;;;;;;;;;;4348561;32;315646;-89
2023/02/03 08:49:45;;;;;;;12.07;7.67;;;;;;;;;;4357019;32;316518;-88
2023/02/03 08:52:14;;;;;;;7.07;5.00;;;;;;;;;;4345531;32;317209;-87
2023/02/03 08:54:41;;;;;;;8.43;5.47;;;;;;;;;;4355605;32;316451;-87
2023/02/03 08:57:08;;;;;;;7.27;4.23;;;;;;;;;;4345613;32;316391;-87
2023/02/03 08:59:35;;;;;;;9.03;7.70;;;;;;;;;;4356058;32;316301;-87
2023/02/03 09:02:03;;;;;;;9.37;6.37;;;;;;;;;;4357427;32;316493;-88
2023/02/03 09:04:32;;;;;;;5.50;4.73;;;;;;;;;;4337942;32;415189;-89
2023/02/03 09:06:59;;;;;;;6.87;5.63;;;;;;;;;;4357512;32;316438;-88
2023/02/03 09:09:27;;;;;;;5.07;3.63;;;;;;;;;;4345923;32;315427;-87
2023/02/03 09:12:00;;;;;;;9.33;7.57;;;;;;;;;;4357322;32;316169;-88
2023/02/03 09:14:27;;;;;;;6.50;4.10;;;;;;;;;;4346563;32;315601;-87
2023/02/03 09:16:54;;;;;;;3.80;3.03;;;;;;;;;;4356850;32;316336;-88
2023/02/03 09:19:21;;;;;;;4.63;3.70;;;;;;;;;;4346388;32;316102;-88
2023/02/03 09:21:48;;;;;;;4.07;3.37;;;;;;;;;;4355628;32;315808;-88
2023/02/03 09:24:15;;;;;;;4.23;3.10;;;;;;;;;;4346852;32;315498;-89
2023/02/03 09:26:43;;;;;;;3.53;2.90;;;;;;;;;;4357611;32;316557;-89
2023/02/03 09:29:10;;;;;;;10.33;4.53;;;;;;;;;;4346654;32;316258;-88
2023/02/03 09:31:37;;;;;;;7.13;4.57;;;;;;;;;;4356053;32;316532;-88
2023/02/03 09:34:03;;;;;;;4.37;2.93;;;;;;;;;;4357164;32;316681;-88
2023/02/03 09:36:30;;;;;;;16.37;10.47;;;;;;;;;;4345483;32;412868;-88
2023/02/03 09:38:57;;;;;;;9.37;6.60;;;;;;;;;;4356148;32;318383;-88
2023/02/03 09:41:37;;;;;;;3.30;2.67;;;;;;;;;;4345874;32;315541;-89
2023/02/03 09:44:14;;;;;;;4.50;3.73;;;;;;;;;;4350541;32;315260;-88
2023/02/03 09:46:43;;;;;;;10.67;6.73;;;;;;;;;;4356960;32;316254;-88
2023/02/03 09:49:17;;;;;;;17.00;10.93;;;;;;;;;;4347004;32;317190;-87
2023/02/03 09:51:48;;;;;;;6.30;3.43;;;;;;;;;;4357127;32;317622;-90
2023/02/03 09:54:20;;;;;;;2.30;2.00;;;;;;;;;;4347846;32;316515;-87
2023/02/03 09:56:51;;;;;;;3.33;2.43;;;;;;;;;;4357334;32;316180;-88
2023/02/03 09:59:19;;;;;;;17.13;11.07;;;;;;;;;;4346856;32;323039;-87
2023/02/03 10:01:55;;;;;;;5.57;3.43;;;;;;;;;;4354922;32;317447;-87
2023/02/03 10:04:32;;;;;;;10.90;4.40;;;;;;;;;;4345716;32;316255;-87
2023/02/03 10:07:11;;;;;;;6.17;3.27;;;;;;;;;;4356619;32;316640;-87
2023/02/03 10:09:51;;;;;;;5.60;2.83;;;;;;;;;;4343893;32;414990;-88
2023/02/03 10:12:55;;;;;;;6.30;2.50;;;;;;;;;;4346577;32;316331;-89
2023/02/03 10:15:39;;;;;;;5.33;2.97;;;;;;;;;;4347343;32;336234;-87
2023/02/03 10:18:10;;;;;;;5.70;3.77;;;;;;;;;;4345709;32;315957;-87
2023/02/03 10:20:40;;;;;;;4.93;3.27;;;;;;;;;;4356521;32;316802;-88
2023/02/03 10:23:13;;;;;;;10.00;7.07;;;;;;;;;;4343822;32;355220;-88
2023/02/03 10:25:42;;;;;;;6.93;3.77;;;;;;;;;;4355379;32;316470;-87
2023/02/03 10:28:15;;;;;;;11.00;6.93;;;;;;;;;;4345213;32;316536;-87
2023/02/03 10:30:48;;;;;;;6.47;2.07;;;;;;;;;;4355219;32;316644;-87
2023/02/03 10:33:17;;;;;;;4.67;3.43;;;;;;;;;;4345814;32;316427;-87
2023/02/03 10:35:49;;;;;;;8.47;5.90;;;;;;;;;;4355662;32;316034;-87
2023/02/03 10:38:27;;;;;;;15.37;11.30;;;;;;;;;;4345522;32;316389;-87
2023/02/03 10:40:53;;;;;;;8.20;4.90;;;;;;;;;;4356688;32;318661;-89
2023/02/03 10:46:06;;;;;;;11.37;4.90;;;;;;;;;;4346738;32;316734;-88
2023/02/03 10:48:33;;;;;;;12.20;8.17;;;;;;;;;;4354634;32;316846;-88
2023/02/03 10:51:02;;;;;;;8.63;5.80;;;;;;;;;;4356224;32;317117;-88
2023/02/03 10:53:33;;;;;;;16.33;11.07;;;;;;;;;;4346861;32;316167;-87
2023/02/03 10:56:04;;;;;;;10.70;6.37;;;;;;;;;;4356173;32;318328;-88
2023/02/03 10:58:33;;;;;;;10.13;5.23;;;;;;;;;;4346684;32;416672;-87
2023/02/03 11:01:09;;;;;;;7.77;6.03;;;;;;;;;;4360089;32;317397;-87
2023/02/03 11:03:36;;;;;;;10.00;7.20;;;;;;;;;;4347426;32;415356;-88
2023/02/03 11:06:09;;;;;;;15.00;8.13;;;;;;;;;;4362495;32;317258;-86
2023/02/03 11:08:38;;;;;;;6.70;4.27;;;;;;;;;;4346226;32;415854;-87
2023/02/03 11:11:07;;;;;;;15.20;6.83;;;;;;;;;;4346853;32;324786;-87
2023/02/03 11:13:34;;;;;;;9.70;4.93;;;;;;;;;;4362333;32;323241;-87
2023/02/03 11:16:03;;;;;;;14.10;5.47;;;;;;;;;;4361364;32;339629;-87
2023/02/03 11:18:41;;;;;;;24.63;11.60;;;;;;;;;;4349202;32;416023;-88
2023/02/03 11:21:14;;;;;;;18.80;10.03;;;;;;;;;;4354128;32;318611;-88
2023/02/03 11:23:49;;;;;;;13.30;6.60;;;;;;;;;;4366171;32;318799;-88
2023/02/03 11:26:20;;;;;;;13.97;7.27;;;;;;;;;;4351494;32;337173;-87
2023/02/03 11:28:49;;;;;;;30.40;18.33;;;;;;;;;;4359987;32;318693;-88
2023/02/03 11:31:23;;;;;;;16.13;10.10;;;;;;;;;;4349113;32;319641;-88
2023/02/03 11:33:55;;;;;;;7.90;4.97;;;;;;;;;;4357894;32;319757;-87
2023/02/03 11:36:22;;;;;;;2.80;2.13;;;;;;;;;;4347104;32;345493;-87
2023/02/03 11:38:49;;;;;;;5.93;3.20;;;;;;;;;;4358195;32;317114;-88
2023/02/03 11:41:18;;;;;;;4.10;2.20;;;;;;;;;;4350595;32;317350;-90
2023/02/03 11:43:45;;;;;;;2.40;1.70;;;;;;;;;;4358646;32;317626;-88
2023/02/03 11:46:13;;;;;;;17.37;7.73;;;;;;;;;;4348794;32;321190;-87
2023/02/03 11:48:49;;;;;;;9.00;5.00;;;;;;;;;;4359056;32;317424;-88
2023/02/03 11:51:30;;;;;;;7.03;5.20;;;;;;;;;;4348044;32;316241;-87
2023/02/03 11:54:11;;;;;;;7.80;3.90;;;;;;;;;;4358408;32;315740;-88
2023/02/03 11:56:52;;;;;;;4.73;3.00;;;;;;;;;;4345952;32;416139;-88
2023/02/03 11:59:47;;;;;;;4.90;3.00;;;;;;;;;;4349138;32;317400;-88
2023/02/03 12:03:01;;;;;;;6.10;4.10;;;;;;;;;;4347216;32;317377;-87
2023/02/03 12:05:46;;;;;;;10.43;6.37;;;;;;;;;;4303330;33;316301;-87
2023/02/03 12:08:28;;;;;;;7.53;4.30;;;;;;;;;;4346927;32;317535;-88
2023/02/03 12:11:05;;;;;;;6.67;4.17;;;;;;;;;;4358233;32;316487;-88
2023/02/03 12:13:46;;;;;;;20.73;11.63;;;;;;;;;;4345634;32;416145;-87
2023/02/03 12:16:26;;;;;;;16.27;10.70;;;;;;;;;;4347223;32;318837;-87
2023/02/03 12:19:05;;;;;;;9.33;6.37;;;;;;;;;;4357785;32;318373;-87
2023/02/03 12:21:42;;;;;;;31.50;17.90;;;;;;;;;;4331015;32;416145;-87
2023/02/03 12:24:23;;;;;;;16.63;12.50;;;;;;;;;;4332883;32;318777;-88
2023/02/03 12:26:57;;;;;;;14.33;10.47;;;;;;;;;;4345451;32;318558;-86
2023/02/03 12:29:30;;;;;;;9.87;6.67;;;;;;;;;;4342944;32;317650;-87
2023/02/03 12:32:06;;;;;;;25.70;15.13;;;;;;;;;;4356604;32;314424;-88
2023/02/03 12:34:36;;;;;;;20.93;12.23;;;;;;;;;;4345028;32;418184;-87
2023/02/03 12:37:08;;;;;;;14.27;9.63;;;;;;;;;;4353849;32;318421;-88
2023/02/03 12:39:41;;;;;;;10.67;7.33;;;;;;;;;;4340522;32;414918;-88
2023/02/03 12:42:15;;;;;;;7.57;5.77;;;;;;;;;;4348645;32;316117;-88
2023/02/03 12:44:48;;;;;;;12.17;8.77;;;;;;;;;;4358626;32;314855;-88
2023/02/03 12:47:23;;;;;;;23.47;15.73;;;;;;;;;;4347625;32;315277;-88
2023/02/03 12:49:54;;;;;;;26.23;13.77;;;;;;;;;;4358832;32;317155;-89
2023/02/03 12:55:17;;;;;;;17.20;8.90;;;;;;;;;;4343383;32;317514;-88
2023/02/03 12:57:48;;;;;;;8.30;5.67;;;;;;;;;;4316726;33;317382;-88
2023/02/03 13:00:27;;;;;;;10.07;6.00;;;;;;;;;;4310237;33;316409;-88
2023/02/03 13:03:06;;;;;;;5.87;4.33;;;;;;;;;;4314016;33;317354;-88
2023/02/03 13:05:41;;;;;;;15.67;10.23;;;;;;;;;;4300930;33;416210;-88
2023/02/03 13:08:16;;;;;;;22.47;12.70;;;;;;;;;;4301266;33;343260;-88
2023/02/03 13:10:48;;;;;;;64.50;36.00;;;;;;;;;;4313733;33;317539;-89
2023/02/03 13:13:21;;;;;;;31.77;19.07;;;;;;;;;;4303049;33;318480;-88
2023/02/03 13:15:51;;;;;;;9.53;6.47;;;;;;;;;;4313943;33;318547;-89
2023/02/03 13:18:25;;;;;;;6.13;4.00;;;;;;;;;;4305364;33;316346;-87
2023/02/03 13:20:53;;;;;;;12.97;7.67;;;;;;;;;;4313699;33;316333;-88
2023/02/03 13:23:20;;;;;;;46.37;25.03;;;;;;;;;;4304139;33;317496;-88
2023/02/03 13:26:12;;;;;;;38.90;19.13;;;;;;;;;;4312644;33;318682;-87
2023/02/03 13:28:52;;;;;;;11.67;6.57;;;;;;;;;;4300262;33;418391;-87
2023/02/03 13:31:30;;;;;;;14.30;8.47;;;;;;;;;;4303265;33;317377;-89
2023/02/03 13:34:23;;;;;;;24.47;12.43;;;;;;;;;;4313690;33;317566;-86
2023/02/03 13:37:27;;;;;;;12.87;8.47;;;;;;;;;;4311640;32;417832;-87
2023/02/03 13:40:13;;;;;;;19.57;11.73;;;;;;;;;;4291559;32;417318;-87
2023/02/03 13:42:46;;;;;;;13.80;8.80;;;;;;;;;;4314455;32;418534;-87
2023/02/03 13:45:22;;;;;;;22.93;12.70;;;;;;;;;;4316428;32;316791;-87
2023/02/03 13:47:52;;;;;;;16.80;9.63;;;;;;;;;;4327660;32;317638;-88
2023/02/03 13:50:23;;;;;;;20.50;13.53;;;;;;;;;;4316553;32;317453;-88
2023/02/03 13:52:57;;;;;;;27.60;13.50;;;;;;;;;;4326771;32;318565;-87
2023/02/03 13:55:32;;;;;;;5.22;2.53;;;;;;;;;;4319759;32;339051;-89
2023/02/03 13:58:01;;;;;;;5.37;3.43;;;;;;;;;;4356418;32;315396;-87
2023/02/03 14:01:07;;;;;;;7.73;4.67;;;;;;;;;;4348160;32;316221;-88
2023/02/03 14:03:45;;;;;;;18.80;12.07;;;;;;;;;;4345408;32;417798;-90
2023/02/03 14:07:00;;;;;;;19.60;11.80;;;;;;;;;;4348182;32;318416;-87
2023/02/03 14:09:39;;;;;;;9.60;6.33;;;;;;;;;;4346705;32;318274;-87
2023/02/03 14:12:35;;;;;;;8.80;5.93;;;;;;;;;;4348662;32;315392;-87
2023/02/03 14:15:19;;;;;;;9.23;5.27;;;;;;;;;;4358051;32;316283;-88
2023/02/03 14:18:26;;;;;;;13.23;7.80;;;;;;;;;;4344738;32;415990;-87
2023/02/03 14:21:21;;;;;;;6.13;4.00;;;;;;;;;;4347612;32;419532;-90
2023/02/03 14:24:05;;;;;;;9.73;4.77;;;;;;;;;;4357746;32;416108;-89
2023/02/03 14:26:41;;;;;;;8.20;4.97;;;;;;;;;;4357842;32;415944;-88
2023/02/03 14:29:09;;;;;;;15.23;9.63;;;;;;;;;;4356651;32;315415;-87
2023/02/03 14:31:56;;;;;;;11.07;7.20;;;;;;;;;;4364629;32;316453;-87
2023/02/03 14:34:38;;;;;;;17.13;7.87;;;;;;;;;;4356462;32;316916;-85
2023/02/03 14:37:26;;;;;;;14.43;5.93;;;;;;;;;;4361671;32;316212;-87
2023/02/03 14:40:16;;;;;;;32.47;11.37;;;;;;;;;;4371681;32;332658;-89
2023/02/03 14:43:21;;;;;;;25.47;11.07;;;;;;;;;;4358326;32;418688;-87
2023/02/03 14:46:23;;;;;;;21.30;10.47;;;;;;;;;;4349504;32;418656;-87
2023/02/03 14:49:11;;;;;;;11.37;6.53;;;;;;;;;;4287713;33;417758;-87